createdAt,value
2022-08-16T00:01:15.495Z,100.00
2022-08-16T00:03:42.855Z,100.00
2022-08-16T00:06:10.261Z,100.00
2022-08-16T00:08:38.104Z,100.00
2022-08-16T00:11:15.166Z,100.00
2022-08-16T00:13:54.021Z,100.00
2022-08-16T00:17:01.606Z,100.00
2022-08-16T00:19:17.987Z,100.00
2022-08-16T00:21:46.587Z,100.00
2022-08-16T00:24:31.186Z,100.00
2022-08-16T00:27:01.919Z,100.00
2022-08-16T00:29:29.829Z,100.00
2022-08-16T00:32:01.612Z,100.00
2022-08-16T00:34:43.601Z,100.00
2022-08-16T00:37:17.025Z,100.00
2022-08-16T00:39:47.828Z,100.00
2022-08-16T00:42:30.797Z,100.00
2022-08-16T00:45:09.690Z,100.00
2022-08-16T00:47:49.548Z,100.00
2022-08-16T00:50:21.082Z,100.00
2022-08-16T00:52:51.036Z,100.00
2022-08-16T00:55:22.320Z,100.00
2022-08-16T00:57:59.903Z,100.00
2022-08-16T01:00:32.234Z,100.00
2022-08-16T01:03:11.686Z,100.00
2022-08-16T01:05:41.688Z,100.00
2022-08-16T01:08:35.363Z,100.00
2022-08-16T01:11:00.006Z,100.00
2022-08-16T01:13:32.571Z,100.00
2022-08-16T01:16:03.080Z,100.00
2022-08-16T01:18:40.739Z,100.00
2022-08-16T01:21:23.005Z,100.00
2022-08-16T01:24:44.556Z,100.00
2022-08-16T01:27:21.942Z,100.00
2022-08-16T01:29:59.490Z,100.00
2022-08-16T01:32:35.964Z,100.00
2022-08-16T01:35:09.185Z,100.00
2022-08-16T01:37:54.204Z,100.00
2022-08-16T01:40:29.164Z,100.00
2022-08-16T01:42:57.068Z,100.00
2022-08-16T01:45:24.423Z,100.00
2022-08-16T01:48:20.108Z,100.00
2022-08-16T01:51:08.485Z,100.00
2022-08-16T01:53:36.762Z,100.00
2022-08-16T01:56:28.131Z,100.00
2022-08-16T01:58:59.167Z,100.00
2022-08-16T02:01:29.271Z,100.00
2022-08-16T02:03:58.353Z,100.00
2022-08-16T02:06:34.520Z,100.00
2022-08-16T02:09:11.936Z,100.00
2022-08-16T02:11:48.633Z,100.00
2022-08-16T02:14:27.273Z,100.00
2022-08-16T02:16:58.614Z,100.00
2022-08-16T02:20:00.159Z,100.00
2022-08-16T02:22:34.438Z,100.00
2022-08-16T02:25:06.581Z,100.00
2022-08-16T02:27:35.652Z,100.00
2022-08-16T02:30:07.989Z,100.00
2022-08-16T02:32:50.324Z,100.00
2022-08-16T02:35:22.922Z,100.00
2022-08-16T02:37:53.495Z,100.00
2022-08-16T02:40:25.729Z,100.00
2022-08-16T02:42:54.609Z,100.00
2022-08-16T02:45:27.781Z,100.00
2022-08-16T02:48:01.724Z,100.00
2022-08-16T02:50:55.331Z,100.00
2022-08-16T02:53:32.492Z,100.00
2022-08-16T02:56:00.485Z,100.00
2022-08-16T02:58:28.409Z,100.00
2022-08-16T03:00:57.713Z,100.00
2022-08-16T03:04:29.628Z,100.00
2022-08-16T03:06:38.883Z,100.00
2022-08-16T03:09:15.112Z,100.00
2022-08-16T03:11:48.164Z,100.00
2022-08-16T03:14:21.350Z,100.00
2022-08-16T03:16:58.566Z,100.00
2022-08-16T03:19:47.098Z,100.00
2022-08-16T03:22:28.779Z,100.00
2022-08-16T03:25:00.813Z,100.00
2022-08-16T03:27:34.254Z,100.00
2022-08-16T03:30:17.286Z,100.00
2022-08-16T03:32:51.638Z,100.00
2022-08-16T03:35:24.459Z,100.00
2022-08-16T03:38:04.376Z,100.00
2022-08-16T03:40:53.405Z,100.00
2022-08-16T03:43:24.338Z,100.00
2022-08-16T03:46:44.383Z,100.00
2022-08-16T03:49:04.184Z,100.00
2022-08-16T03:51:31.562Z,100.00
2022-08-16T03:54:04.188Z,100.00
2022-08-16T03:56:56.714Z,100.00
2022-08-16T03:59:29.418Z,100.00
2022-08-16T04:02:01.233Z,100.00
2022-08-16T04:04:33.344Z,100.00
2022-08-16T04:07:06.966Z,100.00
2022-08-16T04:09:38.676Z,100.00
2022-08-16T04:12:54.377Z,100.00
2022-08-16T04:14:59.917Z,100.00
2022-08-16T04:17:29.904Z,100.00
2022-08-16T04:19:58.478Z,100.00
2022-08-16T04:22:27.957Z,100.00
2022-08-16T04:25:00.161Z,100.00
2022-08-16T04:27:34.573Z,100.00
2022-08-16T04:30:05.209Z,100.00
2022-08-16T04:32:42.477Z,100.00
2022-08-16T04:35:18.641Z,100.00
2022-08-16T04:37:48.695Z,100.00
2022-08-16T04:40:27.360Z,100.00
2022-08-16T04:42:56.643Z,100.00
2022-08-16T04:45:36.357Z,100.00
2022-08-16T04:48:21.709Z,100.00
2022-08-16T04:50:59.310Z,100.00
2022-08-16T04:53:42.519Z,100.00
2022-08-16T04:56:11.091Z,100.00
2022-08-16T04:58:45.951Z,100.00
2022-08-16T05:01:17.787Z,100.00
2022-08-16T05:04:01.131Z,100.00
2022-08-16T05:06:45.008Z,100.00
2022-08-16T05:09:19.275Z,100.00
2022-08-16T05:11:52.976Z,100.00
2022-08-16T05:14:45.475Z,100.00
2022-08-16T05:17:13.165Z,100.00
2022-08-16T05:19:40.959Z,100.00
2022-08-16T05:22:18.116Z,100.00
2022-08-16T05:24:49.899Z,100.00
2022-08-16T05:27:22.713Z,100.00
2022-08-16T05:30:00.931Z,100.00
2022-08-16T05:32:34.129Z,100.00
2022-08-16T05:35:10.914Z,100.00
2022-08-16T05:37:41.979Z,100.00
2022-08-16T05:40:13.577Z,100.00
2022-08-16T05:42:47.827Z,100.00
2022-08-16T05:45:21.466Z,100.00
2022-08-16T05:47:59.558Z,100.00
2022-08-16T05:50:34.865Z,100.00
2022-08-16T05:53:03.626Z,100.00
2022-08-16T05:55:40.467Z,100.00
2022-08-16T05:58:08.608Z,100.00
2022-08-16T06:00:37.223Z,100.00
2022-08-16T06:03:04.555Z,100.00
2022-08-16T06:05:56.727Z,100.00
2022-08-16T06:08:31.509Z,100.00
2022-08-16T06:11:09.971Z,100.00
2022-08-16T06:13:42.140Z,100.00
2022-08-16T06:16:18.116Z,100.00
2022-08-16T06:18:49.223Z,100.00
2022-08-16T06:21:22.509Z,100.00
2022-08-16T06:23:54.110Z,100.00
2022-08-16T06:26:22.703Z,100.00
2022-08-16T06:28:52.477Z,100.00
2022-08-16T06:31:28.466Z,100.00
2022-08-16T06:33:58.926Z,100.00
2022-08-16T06:36:32.298Z,100.00
2022-08-16T06:39:21.376Z,100.00
2022-08-16T06:41:56.404Z,100.00
2022-08-16T06:44:42.357Z,100.00
2022-08-16T06:47:52.423Z,100.00
2022-08-16T06:50:22.037Z,100.00
2022-08-16T06:53:01.010Z,100.00
2022-08-16T06:55:38.324Z,100.00
2022-08-16T06:58:22.907Z,100.00
2022-08-16T07:01:04.743Z,100.00
2022-08-16T07:03:55.687Z,100.00
2022-08-16T07:06:31.770Z,100.00
2022-08-16T07:09:09.797Z,100.00
2022-08-16T07:11:47.496Z,100.00
2022-08-16T07:14:28.491Z,100.00
2022-08-16T07:16:59.661Z,100.00
2022-08-16T07:19:33.479Z,100.00
2022-08-16T07:22:36.539Z,100.00
2022-08-16T07:25:12.241Z,100.00
2022-08-16T07:27:40.576Z,100.00
2022-08-16T07:30:39.814Z,100.00
2022-08-16T07:33:07.045Z,100.00
2022-08-16T07:35:36.766Z,100.00
2022-08-16T07:38:11.650Z,100.00
2022-08-16T07:41:01.261Z,100.00
2022-08-16T07:43:32.274Z,100.00
2022-08-16T07:46:03.367Z,100.00
2022-08-16T07:48:34.317Z,100.00
2022-08-16T07:51:08.873Z,100.00
2022-08-16T07:53:43.290Z,100.00
2022-08-16T07:56:11.598Z,100.00
2022-08-16T07:58:40.616Z,100.00
2022-08-16T08:01:15.265Z,100.00
2022-08-16T08:03:54.072Z,100.00
2022-08-16T08:06:30.191Z,100.00
2022-08-16T08:09:04.517Z,100.00
2022-08-16T08:11:33.542Z,100.00
2022-08-16T08:14:06.619Z,100.00
2022-08-16T08:16:45.418Z,100.00
2022-08-16T08:19:24.599Z,100.00
2022-08-16T08:21:59.392Z,100.00
2022-08-16T08:24:44.311Z,100.00
2022-08-16T08:27:13.162Z,100.00
2022-08-16T08:30:49.775Z,100.00
2022-08-16T08:32:57.028Z,100.00
2022-08-16T08:35:29.935Z,100.00
2022-08-16T08:38:00.182Z,100.00
2022-08-16T08:40:29.761Z,100.00
2022-08-16T08:43:11.832Z,100.00
2022-08-16T08:45:53.287Z,100.00
2022-08-16T08:48:34.664Z,100.00
2022-08-16T08:51:10.029Z,100.00
2022-08-16T08:53:57.539Z,100.00
2022-08-16T08:56:34.927Z,100.00
2022-08-16T08:59:28.107Z,100.00
2022-08-16T09:01:56.995Z,100.00
2022-08-16T09:04:27.130Z,100.00
2022-08-16T09:06:55.984Z,100.00
2022-08-16T09:09:33.811Z,100.00
2022-08-16T09:12:06.816Z,100.00
2022-08-16T09:14:57.144Z,100.00
2022-08-16T09:20:16.687Z,100.00
2022-08-16T09:22:51.409Z,100.00
2022-08-16T09:25:23.598Z,99.46
2022-08-16T09:27:57.626Z,92.74
2022-08-16T09:30:43.251Z,96.79
2022-08-16T09:33:14.512Z,95.00
2022-08-16T09:35:42.465Z,96.69
2022-08-16T09:38:12.908Z,95.08
2022-08-16T09:40:59.132Z,100.00
2022-08-16T09:44:00.530Z,88.55
2022-08-16T09:46:45.045Z,96.45
2022-08-16T09:49:03.695Z,92.16
2022-08-16T09:51:37.199Z,88.05
2022-08-16T09:54:06.304Z,90.61
2022-08-16T09:56:52.395Z,86.03
2022-08-16T09:59:23.565Z,90.52
2022-08-16T10:01:54.688Z,95.36
2022-08-16T10:04:34.260Z,97.31
2022-08-16T10:07:15.290Z,99.07
2022-08-16T10:09:55.150Z,90.70
2022-08-16T10:12:55.776Z,93.22
2022-08-16T10:15:25.417Z,96.83
2022-08-16T10:18:01.106Z,78.12
2022-08-16T10:20:34.790Z,82.01
2022-08-16T10:23:08.592Z,82.61
2022-08-16T10:27:18.442Z,79.74
2022-08-16T10:28:32.548Z,95.61
2022-08-16T10:31:14.727Z,79.57
2022-08-16T10:33:57.193Z,78.92
2022-08-16T10:36:39.148Z,80.35
2022-08-16T10:39:08.570Z,81.48
2022-08-16T10:41:35.885Z,68.09
2022-08-16T10:47:38.816Z,74.23
2022-08-16T10:50:07.453Z,71.71
2022-08-16T10:52:49.608Z,78.20
2022-08-16T10:58:11.856Z,68.17
2022-08-16T11:00:41.048Z,79.27
2022-08-16T11:03:43.254Z,80.47
2022-08-16T11:06:00.052Z,74.08
2022-08-16T11:08:35.165Z,68.81
2022-08-16T11:11:12.979Z,75.68
2022-08-16T11:14:10.580Z,72.29
2022-08-16T11:19:23.296Z,74.60
2022-08-16T11:24:42.364Z,64.56
2022-08-16T11:27:20.381Z,63.56
2022-08-16T11:29:50.044Z,60.43
2022-08-16T11:32:29.807Z,63.56
2022-08-16T11:35:14.369Z,70.75
2022-08-16T11:38:23.416Z,73.46
2022-08-16T11:40:53.171Z,62.99
2022-08-16T11:43:26.502Z,64.72
2022-08-16T11:45:56.795Z,71.04
2022-08-16T11:48:30.038Z,63.38
2022-08-16T11:50:57.714Z,59.91
2022-08-16T11:53:25.193Z,63.20
2022-08-16T11:55:54.862Z,60.30
2022-08-16T11:58:24.749Z,64.41
2022-08-16T12:00:55.212Z,67.12
2022-08-16T12:03:31.608Z,71.66
2022-08-16T12:06:10.650Z,60.78
2022-08-16T12:08:41.580Z,64.62
2022-08-16T12:11:10.891Z,65.33
2022-08-16T12:13:40.243Z,66.18
2022-08-16T12:16:09.255Z,65.07
2022-08-16T12:18:37.880Z,58.26
2022-08-16T12:21:07.281Z,56.76
2022-08-16T12:23:37.899Z,60.94
2022-08-16T12:26:06.267Z,58.69
2022-08-16T12:28:55.065Z,59.48
2022-08-16T12:31:24.967Z,58.50
2022-08-16T12:33:54.200Z,59.88
2022-08-16T12:36:24.442Z,61.14
2022-08-16T12:38:52.983Z,57.11
2022-08-16T12:41:25.450Z,63.02
2022-08-16T12:44:01.006Z,61.94
2022-08-16T12:46:29.292Z,62.30
2022-08-16T12:49:00.237Z,59.00
2022-08-16T12:51:58.926Z,60.01
2022-08-16T12:54:26.809Z,55.89
2022-08-16T12:56:53.963Z,54.34
2022-08-16T12:59:23.559Z,56.14
2022-08-16T13:01:58.176Z,51.64
2022-08-16T13:04:28.060Z,53.72
2022-08-16T13:09:32.872Z,51.01
2022-08-16T13:12:23.521Z,51.57
2022-08-16T13:14:53.801Z,50.35
2022-08-16T13:17:26.329Z,52.14
2022-08-16T13:20:07.575Z,49.81
2022-08-16T13:25:21.454Z,53.69
2022-08-16T13:28:02.461Z,48.61
2022-08-16T13:30:37.198Z,47.83
2022-08-16T13:33:13.315Z,51.12
2022-08-16T13:35:46.220Z,50.90
2022-08-16T13:38:25.810Z,50.53
2022-08-16T13:40:55.959Z,52.82
2022-08-16T13:43:26.404Z,52.93
2022-08-16T13:45:55.905Z,53.40
2022-08-16T13:48:37.145Z,52.62
2022-08-16T13:51:16.639Z,57.10
2022-08-16T13:53:58.113Z,55.14
2022-08-16T13:56:38.141Z,55.23
2022-08-16T13:59:20.476Z,54.11
2022-08-16T14:01:59.812Z,54.19
2022-08-16T14:04:32.378Z,50.75
2022-08-16T14:07:02.386Z,49.98
2022-08-16T14:09:31.969Z,50.79
2022-08-16T14:12:01.064Z,50.85
2022-08-16T14:14:32.403Z,49.40
2022-08-16T14:17:02.547Z,48.82
2022-08-16T14:19:31.171Z,49.73
2022-08-16T14:22:14.344Z,48.27
2022-08-16T14:24:47.050Z,50.13
2022-08-16T14:27:21.277Z,48.77
2022-08-16T14:29:50.888Z,47.36
2022-08-16T14:32:33.602Z,48.68
2022-08-16T14:35:07.270Z,50.46
2022-08-16T14:37:35.760Z,48.44
2022-08-16T14:40:06.039Z,49.71
2022-08-16T14:42:33.711Z,47.12
2022-08-16T14:45:05.658Z,48.95
2022-08-16T14:47:34.784Z,50.61
2022-08-16T14:50:05.765Z,50.81
2022-08-16T14:55:21.727Z,55.21
2022-08-16T14:57:49.683Z,56.27
2022-08-16T15:00:20.125Z,53.64
2022-08-16T15:02:56.464Z,53.11
2022-08-16T15:05:26.176Z,53.88
2022-08-16T15:07:56.571Z,53.55
2022-08-16T15:10:29.227Z,55.93
2022-08-16T15:12:58.557Z,57.17
2022-08-16T15:15:28.320Z,53.80
2022-08-16T15:17:57.044Z,52.59
2022-08-16T15:20:29.271Z,54.19
2022-08-16T15:23:01.995Z,53.73
2022-08-16T15:25:41.819Z,54.48
2022-08-16T15:28:30.720Z,55.90
2022-08-16T15:31:03.395Z,56.02
2022-08-16T15:33:34.564Z,56.37
2022-08-16T15:36:04.558Z,61.17
2022-08-16T15:39:03.765Z,59.31
2022-08-16T15:41:38.377Z,56.98
2022-08-16T15:44:11.879Z,58.40
2022-08-16T15:46:55.543Z,62.57
2022-08-16T15:49:34.357Z,60.13
2022-08-16T15:52:32.191Z,64.02
2022-08-16T15:55:13.073Z,60.56
2022-08-16T15:57:51.546Z,62.29
2022-08-16T16:00:20.782Z,61.55
2022-08-16T16:02:49.448Z,60.84
2022-08-16T16:05:19.489Z,56.25
2022-08-16T16:07:56.205Z,57.02
2022-08-16T16:10:29.536Z,57.56
2022-08-16T16:12:59.757Z,56.60
2022-08-16T16:15:30.363Z,56.81
2022-08-16T16:17:57.869Z,59.46
2022-08-16T16:20:27.152Z,56.42
2022-08-16T16:23:03.498Z,55.53
2022-08-16T16:25:32.383Z,56.71
2022-08-16T16:28:01.413Z,54.93
2022-08-16T16:30:44.279Z,57.92
2022-08-16T16:33:21.063Z,56.74
2022-08-16T16:35:55.229Z,56.92
2022-08-16T16:38:30.740Z,57.50
2022-08-16T16:40:59.944Z,57.02
2022-08-16T16:43:31.903Z,56.05
2022-08-16T16:46:05.869Z,55.70
2022-08-16T16:48:52.594Z,57.78
2022-08-16T16:51:21.509Z,59.42
2022-08-16T16:53:56.258Z,60.91
2022-08-16T16:56:30.301Z,62.57
2022-08-16T16:59:02.184Z,66.14
2022-08-16T17:01:59.995Z,66.76
2022-08-16T17:04:31.291Z,66.93
2022-08-16T17:07:03.586Z,67.86
2022-08-16T17:09:30.912Z,69.63
2022-08-16T17:11:58.959Z,76.85
2022-08-16T17:14:33.180Z,71.41
2022-08-16T17:17:08.377Z,73.04
2022-08-16T17:19:41.242Z,69.68
2022-08-16T17:22:14.556Z,70.21
2022-08-16T17:24:50.982Z,70.21
2022-08-16T17:27:33.191Z,74.26
2022-08-16T17:30:15.956Z,74.69
2022-08-16T17:32:50.695Z,68.56
2022-08-16T17:35:55.443Z,71.49
2022-08-16T17:38:38.530Z,71.54
2022-08-16T17:41:07.947Z,72.26
2022-08-16T17:43:43.813Z,72.83
2022-08-16T17:46:41.340Z,74.28
2022-08-16T17:49:00.823Z,75.91
2022-08-16T17:51:28.585Z,77.10
2022-08-16T17:53:56.556Z,74.86
2022-08-16T17:56:23.915Z,76.19
2022-08-16T17:58:51.126Z,74.96
2022-08-16T18:01:24.117Z,79.54
2022-08-16T18:04:08.915Z,80.70
2022-08-16T18:06:38.059Z,80.23
2022-08-16T18:09:07.009Z,78.25
2022-08-16T18:11:40.841Z,78.42
2022-08-16T18:14:09.758Z,78.83
2022-08-16T18:16:37.019Z,79.32
2022-08-16T18:19:04.263Z,81.64
2022-08-16T18:21:49.752Z,80.81
2022-08-16T18:24:19.124Z,79.59
2022-08-16T18:26:46.681Z,81.00
2022-08-16T18:29:14.085Z,81.87
2022-08-16T18:31:41.436Z,82.70
2022-08-16T18:34:08.638Z,80.60
2022-08-16T18:36:37.196Z,78.26
2022-08-16T18:39:04.708Z,80.15
2022-08-16T18:41:37.103Z,79.59
2022-08-16T18:44:26.473Z,80.75
2022-08-16T18:46:55.402Z,80.11
2022-08-16T18:49:22.690Z,79.38
2022-08-16T18:51:50.921Z,80.69
2022-08-16T18:54:18.787Z,78.80
2022-08-16T18:56:53.733Z,76.51
2022-08-16T18:59:27.392Z,78.22
2022-08-16T19:01:56.947Z,80.26
2022-08-16T19:04:56.197Z,78.48
2022-08-16T19:07:16.971Z,78.92
2022-08-16T19:09:44.509Z,78.38
2022-08-16T19:12:11.847Z,79.42
2022-08-16T19:14:45.512Z,80.57
2022-08-16T19:17:12.994Z,78.82
2022-08-16T19:19:40.280Z,78.64
2022-08-16T19:22:08.365Z,76.83
2022-08-16T19:24:35.758Z,79.03
2022-08-16T19:27:03.062Z,80.43
2022-08-16T19:29:31.262Z,76.81
2022-08-16T19:31:58.541Z,82.62
2022-08-16T19:34:26.611Z,85.31
2022-08-16T19:36:54.280Z,84.39
2022-08-16T19:39:21.410Z,79.97
2022-08-16T19:41:53.443Z,81.62
2022-08-16T19:44:22.461Z,83.46
2022-08-16T19:46:50.188Z,78.83
2022-08-16T19:49:17.934Z,79.59
2022-08-16T19:51:46.418Z,79.29
2022-08-16T19:54:14.100Z,77.50
2022-08-16T19:56:41.259Z,76.93
2022-08-16T19:59:39.907Z,78.55
2022-08-16T20:01:55.548Z,81.51
2022-08-16T20:04:23.828Z,78.12
2022-08-16T20:06:52.534Z,81.42
2022-08-16T20:09:21.538Z,81.11
2022-08-16T20:11:50.790Z,82.39
2022-08-16T20:14:24.434Z,81.53
2022-08-16T20:16:56.151Z,80.58
2022-08-16T20:19:23.879Z,79.15
2022-08-16T20:21:51.046Z,79.12
2022-08-16T20:24:35.570Z,77.71
2022-08-16T20:27:06.294Z,77.31
2022-08-16T20:29:34.025Z,80.16
2022-08-16T20:32:01.779Z,85.41
2022-08-16T20:34:28.995Z,88.52
2022-08-16T20:36:56.327Z,91.89
2022-08-16T20:39:24.184Z,94.83
2022-08-16T20:41:51.718Z,93.79
2022-08-16T20:44:22.682Z,95.05
2022-08-16T20:46:50.245Z,96.49
2022-08-16T20:49:17.405Z,95.76
2022-08-16T20:51:46.642Z,94.85
2022-08-16T20:54:16.614Z,96.67
2022-08-16T20:56:43.791Z,100.00
2022-08-16T20:59:11.101Z,100.00
2022-08-16T21:01:46.850Z,100.00
2022-08-16T21:04:22.434Z,98.33
2022-08-16T21:06:53.577Z,99.20
2022-08-16T21:09:24.933Z,100.00
2022-08-16T21:11:54.158Z,96.68
2022-08-16T21:14:22.075Z,96.11
2022-08-16T21:16:49.566Z,95.41
2022-08-16T21:19:17.120Z,97.40
2022-08-16T21:21:44.669Z,100.00
2022-08-16T21:24:11.870Z,100.00
2022-08-16T21:26:39.277Z,100.00
2022-08-16T21:29:07.728Z,100.00
2022-08-16T21:31:40.726Z,100.00
2022-08-16T21:34:08.779Z,100.00
2022-08-16T21:36:36.621Z,100.00
2022-08-16T21:39:06.267Z,100.00
2022-08-16T21:41:35.856Z,100.00
2022-08-16T21:44:03.293Z,100.00
2022-08-16T21:46:30.491Z,100.00
2022-08-16T21:48:57.655Z,100.00
2022-08-16T21:51:25.037Z,100.00
2022-08-16T21:53:52.211Z,100.00
2022-08-16T21:56:19.596Z,100.00
2022-08-16T21:58:53.176Z,100.00
2022-08-16T22:01:24.088Z,100.00
2022-08-16T22:03:57.952Z,100.00
2022-08-16T22:06:41.648Z,100.00
2022-08-16T22:09:10.588Z,100.00
2022-08-16T22:11:38.787Z,100.00
2022-08-16T22:14:06.332Z,100.00
2022-08-16T22:16:37.614Z,100.00
2022-08-16T22:19:05.803Z,100.00
2022-08-16T22:21:34.362Z,100.00
2022-08-16T22:24:02.586Z,100.00
2022-08-16T22:26:32.563Z,100.00
2022-08-16T22:29:06.276Z,100.00
2022-08-16T22:31:34.630Z,100.00
2022-08-16T22:34:02.447Z,100.00
2022-08-16T22:36:30.641Z,100.00
2022-08-16T22:38:59.551Z,100.00
2022-08-16T22:41:28.222Z,100.00
2022-08-16T22:43:56.055Z,100.00
2022-08-16T22:46:23.623Z,100.00
2022-08-16T22:48:51.137Z,100.00
2022-08-16T22:51:23.368Z,100.00
2022-08-16T22:53:51.146Z,100.00
2022-08-16T22:56:18.619Z,100.00
2022-08-16T22:58:46.105Z,100.00
2022-08-16T23:01:14.011Z,100.00
2022-08-16T23:03:41.181Z,100.00
2022-08-16T23:06:09.326Z,100.00
2022-08-16T23:08:39.977Z,100.00
2022-08-16T23:11:09.155Z,100.00
2022-08-16T23:13:36.502Z,100.00
2022-08-16T23:16:11.009Z,100.00
2022-08-16T23:18:39.472Z,100.00
2022-08-16T23:21:08.092Z,100.00
2022-08-16T23:23:35.177Z,100.00
2022-08-16T23:26:02.443Z,100.00
2022-08-16T23:28:30.654Z,100.00
2022-08-16T23:30:58.350Z,100.00
2022-08-16T23:33:26.994Z,100.00
2022-08-16T23:35:56.142Z,100.00
2022-08-16T23:38:38.013Z,100.00
2022-08-16T23:41:09.385Z,100.00
2022-08-16T23:43:41.918Z,100.00
2022-08-16T23:46:13.145Z,100.00
2022-08-16T23:49:57.018Z,100.00
2022-08-16T23:51:27.383Z,100.00
2022-08-16T23:53:55.795Z,100.00
2022-08-16T23:56:22.891Z,100.00
2022-08-16T23:58:51.493Z,100.00
